sensor_id;sensor_type;location;lat;lon;timestamp;P1;durP1;ratioP1;P2;durP2;ratioP2
11797;SDS011;5956;51.428;6.682;2023-06-26T00:01:28;7.35;;;6.80;;
11797;SDS011;5956;51.428;6.682;2023-06-26T00:03:56;7.97;;;7.38;;
11797;SDS011;5956;51.428;6.682;2023-06-26T00:06:22;7.18;;;6.57;;
11797;SDS011;5956;51.428;6.682;2023-06-26T00:08:49;8.13;;;7.30;;
11797;SDS011;5956;51.428;6.682;2023-06-26T00:11:16;7.20;;;6.60;;
11797;SDS011;5956;51.428;6.682;2023-06-26T00:13:42;7.80;;;7.20;;
11797;SDS011;5956;51.428;6.682;2023-06-26T00:16:10;7.45;;;6.95;;
11797;SDS011;5956;51.428;6.682;2023-06-26T00:18:37;7.22;;;6.63;;
11797;SDS011;5956;51.428;6.682;2023-06-26T00:21:03;7.80;;;7.10;;
11797;SDS011;5956;51.428;6.682;2023-06-26T00:23:30;8.43;;;7.55;;
11797;SDS011;5956;51.428;6.682;2023-06-26T00:25:58;8.25;;;7.43;;
11797;SDS011;5956;51.428;6.682;2023-06-26T00:28:24;8.82;;;8.02;;
11797;SDS011;5956;51.428;6.682;2023-06-26T00:30:51;8.25;;;7.45;;
11797;SDS011;5956;51.428;6.682;2023-06-26T00:33:18;7.82;;;7.13;;
11797;SDS011;5956;51.428;6.682;2023-06-26T00:35:45;8.45;;;7.75;;
11797;SDS011;5956;51.428;6.682;2023-06-26T00:38:11;8.43;;;7.20;;
11797;SDS011;5956;51.428;6.682;2023-06-26T00:40:38;7.72;;;7.03;;
11797;SDS011;5956;51.428;6.682;2023-06-26T00:43:04;8.48;;;7.70;;
11797;SDS011;5956;51.428;6.682;2023-06-26T00:45:31;8.68;;;7.97;;
11797;SDS011;5956;51.428;6.682;2023-06-26T00:47:57;8.68;;;7.70;;
11797;SDS011;5956;51.428;6.682;2023-06-26T00:50:25;7.68;;;7.07;;
11797;SDS011;5956;51.428;6.682;2023-06-26T00:52:52;7.80;;;7.20;;
11797;SDS011;5956;51.428;6.682;2023-06-26T00:55:19;7.78;;;7.07;;
11797;SDS011;5956;51.428;6.682;2023-06-26T00:57:46;8.40;;;7.43;;
11797;SDS011;5956;51.428;6.682;2023-06-26T01:00:14;9.38;;;7.82;;
11797;SDS011;5956;51.428;6.682;2023-06-26T01:02:41;8.63;;;7.93;;
11797;SDS011;5956;51.428;6.682;2023-06-26T01:05:08;8.07;;;7.38;;
11797;SDS011;5956;51.428;6.682;2023-06-26T01:07:39;7.78;;;6.95;;
11797;SDS011;5956;51.428;6.682;2023-06-26T01:10:06;7.97;;;7.28;;
11797;SDS011;5956;51.428;6.682;2023-06-26T01:12:33;8.55;;;7.80;;
11797;SDS011;5956;51.428;6.682;2023-06-26T01:14:59;7.85;;;7.15;;
11797;SDS011;5956;51.428;6.682;2023-06-26T01:17:26;8.18;;;7.43;;
11797;SDS011;5956;51.428;6.682;2023-06-26T01:19:56;8.15;;;7.38;;
11797;SDS011;5956;51.428;6.682;2023-06-26T01:22:24;9.15;;;8.35;;
11797;SDS011;5956;51.428;6.682;2023-06-26T01:25:02;8.30;;;7.68;;
11797;SDS011;5956;51.428;6.682;2023-06-26T01:27:31;8.55;;;7.68;;
11797;SDS011;5956;51.428;6.682;2023-06-26T01:29:58;8.02;;;7.28;;
11797;SDS011;5956;51.428;6.682;2023-06-26T01:32:26;9.10;;;8.20;;
11797;SDS011;5956;51.428;6.682;2023-06-26T01:34:53;7.95;;;7.32;;
11797;SDS011;5956;51.428;6.682;2023-06-26T01:37:19;8.00;;;7.40;;
11797;SDS011;5956;51.428;6.682;2023-06-26T01:39:45;8.40;;;7.60;;
11797;SDS011;5956;51.428;6.682;2023-06-26T01:42:12;8.52;;;7.70;;
11797;SDS011;5956;51.428;6.682;2023-06-26T01:44:41;8.13;;;7.43;;
11797;SDS011;5956;51.428;6.682;2023-06-26T01:47:09;8.32;;;7.63;;
11797;SDS011;5956;51.428;6.682;2023-06-26T01:49:42;8.38;;;7.57;;
11797;SDS011;5956;51.428;6.682;2023-06-26T01:52:12;9.07;;;8.32;;
11797;SDS011;5956;51.428;6.682;2023-06-26T01:54:42;8.65;;;7.95;;
11797;SDS011;5956;51.428;6.682;2023-06-26T01:57:11;9.20;;;8.25;;
11797;SDS011;5956;51.428;6.682;2023-06-26T01:59:38;9.05;;;8.25;;
11797;SDS011;5956;51.428;6.682;2023-06-26T02:02:08;8.15;;;7.55;;
11797;SDS011;5956;51.428;6.682;2023-06-26T02:04:34;9.18;;;7.82;;
11797;SDS011;5956;51.428;6.682;2023-06-26T02:07:02;8.77;;;8.10;;
11797;SDS011;5956;51.428;6.682;2023-06-26T02:09:29;9.05;;;8.13;;
11797;SDS011;5956;51.428;6.682;2023-06-26T02:11:55;8.98;;;8.02;;
11797;SDS011;5956;51.428;6.682;2023-06-26T02:14:21;8.20;;;7.60;;
11797;SDS011;5956;51.428;6.682;2023-06-26T02:16:48;8.32;;;7.63;;
11797;SDS011;5956;51.428;6.682;2023-06-26T02:19:16;8.75;;;7.80;;
11797;SDS011;5956;51.428;6.682;2023-06-26T02:21:46;9.15;;;7.90;;
11797;SDS011;5956;51.428;6.682;2023-06-26T02:24:13;8.38;;;7.55;;
11797;SDS011;5956;51.428;6.682;2023-06-26T02:26:39;10.52;;;7.88;;
11797;SDS011;5956;51.428;6.682;2023-06-26T02:29:06;8.27;;;7.65;;
11797;SDS011;5956;51.428;6.682;2023-06-26T02:31:32;8.70;;;8.00;;
11797;SDS011;5956;51.428;6.682;2023-06-26T02:33:59;8.52;;;7.72;;
11797;SDS011;5956;51.428;6.682;2023-06-26T02:36:27;8.55;;;7.68;;
11797;SDS011;5956;51.428;6.682;2023-06-26T02:38:53;8.82;;;8.05;;
11797;SDS011;5956;51.428;6.682;2023-06-26T02:41:20;8.80;;;7.82;;
11797;SDS011;5956;51.428;6.682;2023-06-26T02:43:46;8.45;;;7.65;;
11797;SDS011;5956;51.428;6.682;2023-06-26T02:46:12;8.40;;;7.70;;
11797;SDS011;5956;51.428;6.682;2023-06-26T02:48:39;8.27;;;7.43;;
11797;SDS011;5956;51.428;6.682;2023-06-26T02:51:06;9.38;;;8.50;;
11797;SDS011;5956;51.428;6.682;2023-06-26T02:53:34;8.88;;;8.07;;
11797;SDS011;5956;51.428;6.682;2023-06-26T02:56:01;8.07;;;7.38;;
11797;SDS011;5956;51.428;6.682;2023-06-26T02:58:27;9.43;;;8.50;;
11797;SDS011;5956;51.428;6.682;2023-06-26T03:00:54;8.30;;;7.53;;
11797;SDS011;5956;51.428;6.682;2023-06-26T03:03:21;8.57;;;7.70;;
11797;SDS011;5956;51.428;6.682;2023-06-26T03:05:48;8.68;;;7.55;;
11797;SDS011;5956;51.428;6.682;2023-06-26T03:08:14;8.48;;;7.78;;
11797;SDS011;5956;51.428;6.682;2023-06-26T03:10:42;8.05;;;7.32;;
11797;SDS011;5956;51.428;6.682;2023-06-26T03:13:09;7.57;;;6.97;;
11797;SDS011;5956;51.428;6.682;2023-06-26T03:15:35;8.27;;;7.32;;
11797;SDS011;5956;51.428;6.682;2023-06-26T03:18:02;9.68;;;7.75;;
11797;SDS011;5956;51.428;6.682;2023-06-26T03:20:28;8.30;;;7.50;;
11797;SDS011;5956;51.428;6.682;2023-06-26T03:22:55;7.88;;;7.18;;
11797;SDS011;5956;51.428;6.682;2023-06-26T03:25:21;8.65;;;7.40;;
11797;SDS011;5956;51.428;6.682;2023-06-26T03:27:49;7.13;;;6.63;;
11797;SDS011;5956;51.428;6.682;2023-06-26T03:30:16;7.78;;;7.00;;
11797;SDS011;5956;51.428;6.682;2023-06-26T03:32:42;8.13;;;7.43;;
11797;SDS011;5956;51.428;6.682;2023-06-26T03:35:09;8.63;;;7.78;;
11797;SDS011;5956;51.428;6.682;2023-06-26T03:37:35;8.15;;;7.47;;
11797;SDS011;5956;51.428;6.682;2023-06-26T03:40:02;8.25;;;7.45;;
11797;SDS011;5956;51.428;6.682;2023-06-26T03:42:29;6.85;;;6.35;;
11797;SDS011;5956;51.428;6.682;2023-06-26T03:44:57;7.93;;;6.53;;
11797;SDS011;5956;51.428;6.682;2023-06-26T03:47:24;7.22;;;6.63;;
11797;SDS011;5956;51.428;6.682;2023-06-26T03:49:50;8.20;;;7.30;;
11797;SDS011;5956;51.428;6.682;2023-06-26T03:52:16;9.27;;;8.38;;
11797;SDS011;5956;51.428;6.682;2023-06-26T03:54:43;8.50;;;7.40;;
11797;SDS011;5956;51.428;6.682;2023-06-26T03:57:09;7.28;;;6.68;;
11797;SDS011;5956;51.428;6.682;2023-06-26T03:59:36;7.95;;;6.00;;
11797;SDS011;5956;51.428;6.682;2023-06-26T04:02:04;6.90;;;6.30;;
11797;SDS011;5956;51.428;6.682;2023-06-26T04:04:31;6.15;;;5.65;;
11797;SDS011;5956;51.428;6.682;2023-06-26T04:06:57;14.00;;;12.50;;
11797;SDS011;5956;51.428;6.682;2023-06-26T04:09:24;8.88;;;8.05;;
11797;SDS011;5956;51.428;6.682;2023-06-26T04:11:50;7.40;;;6.90;;
11797;SDS011;5956;51.428;6.682;2023-06-26T04:14:17;6.32;;;5.72;;
11797;SDS011;5956;51.428;6.682;2023-06-26T04:16:43;6.75;;;6.03;;
11797;SDS011;5956;51.428;6.682;2023-06-26T04:19:12;7.03;;;6.28;;
11797;SDS011;5956;51.428;6.682;2023-06-26T04:21:38;6.80;;;5.93;;
11797;SDS011;5956;51.428;6.682;2023-06-26T04:24:05;5.88;;;5.38;;
11797;SDS011;5956;51.428;6.682;2023-06-26T04:26:31;6.78;;;6.03;;
11797;SDS011;5956;51.428;6.682;2023-06-26T04:28:58;8.30;;;7.45;;
11797;SDS011;5956;51.428;6.682;2023-06-26T04:31:24;6.90;;;6.32;;
11797;SDS011;5956;51.428;6.682;2023-06-26T04:33:51;7.47;;;6.00;;
11797;SDS011;5956;51.428;6.682;2023-06-26T04:36:21;6.95;;;6.30;;
11797;SDS011;5956;51.428;6.682;2023-06-26T04:38:47;6.95;;;6.22;;
11797;SDS011;5956;51.428;6.682;2023-06-26T04:41:14;7.20;;;6.60;;
11797;SDS011;5956;51.428;6.682;2023-06-26T04:43:40;7.22;;;6.57;;
11797;SDS011;5956;51.428;6.682;2023-06-26T04:46:07;7.15;;;6.32;;
11797;SDS011;5956;51.428;6.682;2023-06-26T04:48:33;6.93;;;6.28;;
11797;SDS011;5956;51.428;6.682;2023-06-26T04:51:00;10.57;;;9.70;;
11797;SDS011;5956;51.428;6.682;2023-06-26T04:53:28;8.10;;;7.40;;
11797;SDS011;5956;51.428;6.682;2023-06-26T04:55:54;7.97;;;7.05;;
11797;SDS011;5956;51.428;6.682;2023-06-26T04:58:21;7.25;;;6.55;;
11797;SDS011;5956;51.428;6.682;2023-06-26T05:00:47;8.13;;;7.10;;
11797;SDS011;5956;51.428;6.682;2023-06-26T05:03:15;7.47;;;6.88;;
11797;SDS011;5956;51.428;6.682;2023-06-26T05:05:42;7.90;;;6.68;;
11797;SDS011;5956;51.428;6.682;2023-06-26T05:08:14;7.07;;;6.55;;
11797;SDS011;5956;51.428;6.682;2023-06-26T05:10:43;6.70;;;6.10;;
11797;SDS011;5956;51.428;6.682;2023-06-26T05:13:09;7.75;;;6.97;;
11797;SDS011;5956;51.428;6.682;2023-06-26T05:15:36;6.82;;;6.20;;
11797;SDS011;5956;51.428;6.682;2023-06-26T05:18:02;6.75;;;6.10;;
11797;SDS011;5956;51.428;6.682;2023-06-26T05:20:30;6.65;;;6.05;;
11797;SDS011;5956;51.428;6.682;2023-06-26T05:22:56;9.05;;;5.95;;
11797;SDS011;5956;51.428;6.682;2023-06-26T05:25:23;5.72;;;5.20;;
11797;SDS011;5956;51.428;6.682;2023-06-26T05:27:53;7.15;;;6.00;;
11797;SDS011;5956;51.428;6.682;2023-06-26T05:30:19;6.47;;;5.70;;
11797;SDS011;5956;51.428;6.682;2023-06-26T05:32:46;7.35;;;5.35;;
11797;SDS011;5956;51.428;6.682;2023-06-26T05:35:13;7.50;;;5.57;;
11797;SDS011;5956;51.428;6.682;2023-06-26T05:37:40;7.60;;;5.80;;
11797;SDS011;5956;51.428;6.682;2023-06-26T05:40:08;7.65;;;5.00;;
11797;SDS011;5956;51.428;6.682;2023-06-26T05:42:35;6.28;;;5.32;;
11797;SDS011;5956;51.428;6.682;2023-06-26T05:45:03;6.80;;;5.57;;
11797;SDS011;5956;51.428;6.682;2023-06-26T05:47:29;7.07;;;5.55;;
11797;SDS011;5956;51.428;6.682;2023-06-26T05:49:56;9.32;;;8.10;;
11797;SDS011;5956;51.428;6.682;2023-06-26T05:52:23;8.20;;;7.20;;
11797;SDS011;5956;51.428;6.682;2023-06-26T05:54:49;5.68;;;5.00;;
11797;SDS011;5956;51.428;6.682;2023-06-26T05:57:16;9.48;;;5.70;;
11797;SDS011;5956;51.428;6.682;2023-06-26T05:59:43;6.72;;;5.20;;
11797;SDS011;5956;51.428;6.682;2023-06-26T06:02:11;7.03;;;5.20;;
11797;SDS011;5956;51.428;6.682;2023-06-26T06:04:37;9.82;;;5.40;;
11797;SDS011;5956;51.428;6.682;2023-06-26T06:07:04;7.45;;;5.80;;
11797;SDS011;5956;51.428;6.682;2023-06-26T06:09:31;9.20;;;5.60;;
11797;SDS011;5956;51.428;6.682;2023-06-26T06:11:58;7.50;;;5.47;;
11797;SDS011;5956;51.428;6.682;2023-06-26T06:14:25;8.02;;;5.30;;
11797;SDS011;5956;51.428;6.682;2023-06-26T06:16:51;7.05;;;5.28;;
11797;SDS011;5956;51.428;6.682;2023-06-26T06:19:19;9.68;;;5.55;;
11797;SDS011;5956;51.428;6.682;2023-06-26T06:21:45;6.30;;;4.85;;
11797;SDS011;5956;51.428;6.682;2023-06-26T06:24:12;8.38;;;5.15;;
11797;SDS011;5956;51.428;6.682;2023-06-26T06:26:38;6.72;;;5.57;;
11797;SDS011;5956;51.428;6.682;2023-06-26T06:29:05;11.88;;;8.15;;
11797;SDS011;5956;51.428;6.682;2023-06-26T06:31:31;9.73;;;7.40;;
11797;SDS011;5956;51.428;6.682;2023-06-26T06:33:58;9.52;;;6.60;;
11797;SDS011;5956;51.428;6.682;2023-06-26T06:36:25;9.70;;;5.80;;
11797;SDS011;5956;51.428;6.682;2023-06-26T06:38:52;8.02;;;5.38;;
11797;SDS011;5956;51.428;6.682;2023-06-26T06:41:19;9.05;;;5.53;;
11797;SDS011;5956;51.428;6.682;2023-06-26T06:43:45;11.07;;;5.85;;
11797;SDS011;5956;51.428;6.682;2023-06-26T06:46:12;7.60;;;5.38;;
11797;SDS011;5956;51.428;6.682;2023-06-26T06:48:38;9.43;;;5.10;;
11797;SDS011;5956;51.428;6.682;2023-06-26T06:51:05;9.52;;;5.55;;
11797;SDS011;5956;51.428;6.682;2023-06-26T06:53:33;12.13;;;5.55;;
11797;SDS011;5956;51.428;6.682;2023-06-26T06:55:59;10.35;;;5.45;;
11797;SDS011;5956;51.428;6.682;2023-06-26T06:58:25;9.65;;;5.32;;
11797;SDS011;5956;51.428;6.682;2023-06-26T07:00:52;11.18;;;5.88;;
11797;SDS011;5956;51.428;6.682;2023-06-26T07:03:19;10.48;;;5.57;;
11797;SDS011;5956;51.428;6.682;2023-06-26T07:05:46;10.40;;;6.40;;
11797;SDS011;5956;51.428;6.682;2023-06-26T07:08:12;10.35;;;5.65;;
11797;SDS011;5956;51.428;6.682;2023-06-26T07:10:40;10.10;;;5.93;;
11797;SDS011;5956;51.428;6.682;2023-06-26T07:13:07;15.85;;;11.52;;
11797;SDS011;5956;51.428;6.682;2023-06-26T07:15:33;12.02;;;7.47;;
11797;SDS011;5956;51.428;6.682;2023-06-26T07:18:00;9.40;;;5.50;;
11797;SDS011;5956;51.428;6.682;2023-06-26T07:20:27;11.20;;;6.68;;
11797;SDS011;5956;51.428;6.682;2023-06-26T07:22:53;7.57;;;6.05;;
11797;SDS011;5956;51.428;6.682;2023-06-26T07:25:19;8.88;;;6.00;;
11797;SDS011;5956;51.428;6.682;2023-06-26T07:27:47;9.88;;;6.35;;
11797;SDS011;5956;51.428;6.682;2023-06-26T07:30:14;9.80;;;6.00;;
11797;SDS011;5956;51.428;6.682;2023-06-26T07:32:40;11.27;;;6.38;;
11797;SDS011;5956;51.428;6.682;2023-06-26T07:35:07;10.77;;;5.93;;
11797;SDS011;5956;51.428;6.682;2023-06-26T07:37:34;10.90;;;6.50;;
11797;SDS011;5956;51.428;6.682;2023-06-26T07:40:00;10.15;;;5.85;;
11797;SDS011;5956;51.428;6.682;2023-06-26T07:42:27;12.00;;;6.53;;
11797;SDS011;5956;51.428;6.682;2023-06-26T07:44:55;9.65;;;6.25;;
11797;SDS011;5956;51.428;6.682;2023-06-26T07:47:21;10.73;;;5.55;;
11797;SDS011;5956;51.428;6.682;2023-06-26T07:49:48;10.45;;;5.45;;
11797;SDS011;5956;51.428;6.682;2023-06-26T07:52:14;8.98;;;5.43;;
11797;SDS011;5956;51.428;6.682;2023-06-26T07:54:41;7.88;;;5.43;;
11797;SDS011;5956;51.428;6.682;2023-06-26T07:57:07;9.77;;;5.25;;
11797;SDS011;5956;51.428;6.682;2023-06-26T07:59:36;10.60;;;5.40;;
11797;SDS011;5956;51.428;6.682;2023-06-26T08:02:04;9.15;;;5.47;;
11797;SDS011;5956;51.428;6.682;2023-06-26T08:04:30;9.20;;;5.30;;
11797;SDS011;5956;51.428;6.682;2023-06-26T08:06:59;7.40;;;5.18;;
11797;SDS011;5956;51.428;6.682;2023-06-26T08:09:26;8.00;;;5.05;;
11797;SDS011;5956;51.428;6.682;2023-06-26T08:11:53;8.55;;;4.93;;
11797;SDS011;5956;51.428;6.682;2023-06-26T08:14:20;9.38;;;4.50;;
11797;SDS011;5956;51.428;6.682;2023-06-26T08:16:46;10.82;;;4.82;;
11797;SDS011;5956;51.428;6.682;2023-06-26T08:19:15;9.85;;;4.68;;
11797;SDS011;5956;51.428;6.682;2023-06-26T08:21:42;11.98;;;4.97;;
11797;SDS011;5956;51.428;6.682;2023-06-26T08:24:08;6.88;;;4.95;;
11797;SDS011;5956;51.428;6.682;2023-06-26T08:26:35;8.85;;;4.90;;
11797;SDS011;5956;51.428;6.682;2023-06-26T08:29:02;9.25;;;4.70;;
11797;SDS011;5956;51.428;6.682;2023-06-26T08:31:32;9.20;;;4.72;;
11797;SDS011;5956;51.428;6.682;2023-06-26T08:33:59;7.70;;;4.72;;
11797;SDS011;5956;51.428;6.682;2023-06-26T08:36:27;9.43;;;5.50;;
11797;SDS011;5956;51.428;6.682;2023-06-26T08:38:53;7.13;;;4.07;;
11797;SDS011;5956;51.428;6.682;2023-06-26T08:41:20;8.05;;;4.15;;
11797;SDS011;5956;51.428;6.682;2023-06-26T08:43:46;6.82;;;4.53;;
11797;SDS011;5956;51.428;6.682;2023-06-26T08:46:14;10.30;;;5.10;;
11797;SDS011;5956;51.428;6.682;2023-06-26T08:48:41;6.97;;;4.30;;
11797;SDS011;5956;51.428;6.682;2023-06-26T08:51:11;7.38;;;4.22;;
11797;SDS011;5956;51.428;6.682;2023-06-26T08:53:43;7.45;;;4.18;;
11797;SDS011;5956;51.428;6.682;2023-06-26T08:56:12;7.07;;;3.92;;
11797;SDS011;5956;51.428;6.682;2023-06-26T08:58:41;7.78;;;4.57;;
11797;SDS011;5956;51.428;6.682;2023-06-26T09:01:07;7.60;;;4.32;;
11797;SDS011;5956;51.428;6.682;2023-06-26T09:03:34;8.55;;;4.85;;
11797;SDS011;5956;51.428;6.682;2023-06-26T09:06:01;6.13;;;4.38;;
11797;SDS011;5956;51.428;6.682;2023-06-26T09:08:27;10.88;;;4.55;;
11797;SDS011;5956;51.428;6.682;2023-06-26T09:10:55;4.65;;;4.07;;
11797;SDS011;5956;51.428;6.682;2023-06-26T09:13:22;7.30;;;4.30;;
11797;SDS011;5956;51.428;6.682;2023-06-26T09:15:48;8.32;;;4.15;;
11797;SDS011;5956;51.428;6.682;2023-06-26T09:18:16;6.80;;;3.67;;
11797;SDS011;5956;51.428;6.682;2023-06-26T09:20:43;7.47;;;4.43;;
11797;SDS011;5956;51.428;6.682;2023-06-26T09:23:10;9.02;;;3.88;;
11797;SDS011;5956;51.428;6.682;2023-06-26T09:25:38;5.57;;;4.25;;
11797;SDS011;5956;51.428;6.682;2023-06-26T09:28:06;7.43;;;4.38;;
11797;SDS011;5956;51.428;6.682;2023-06-26T09:30:34;8.27;;;3.90;;
11797;SDS011;5956;51.428;6.682;2023-06-26T09:33:12;5.47;;;3.80;;
11797;SDS011;5956;51.428;6.682;2023-06-26T09:35:38;7.40;;;5.93;;
11797;SDS011;5956;51.428;6.682;2023-06-26T09:38:05;6.18;;;3.83;;
11797;SDS011;5956;51.428;6.682;2023-06-26T09:40:31;6.80;;;3.88;;
11797;SDS011;5956;51.428;6.682;2023-06-26T09:43:02;7.03;;;3.80;;
11797;SDS011;5956;51.428;6.682;2023-06-26T09:45:30;8.07;;;3.97;;
11797;SDS011;5956;51.428;6.682;2023-06-26T09:47:59;5.85;;;4.40;;
11797;SDS011;5956;51.428;6.682;2023-06-26T09:50:25;5.45;;;3.78;;
11797;SDS011;5956;51.428;6.682;2023-06-26T09:52:52;5.25;;;3.45;;
11797;SDS011;5956;51.428;6.682;2023-06-26T09:55:19;5.63;;;3.92;;
11797;SDS011;5956;51.428;6.682;2023-06-26T09:57:46;7.03;;;3.38;;
11797;SDS011;5956;51.428;6.682;2023-06-26T10:00:13;5.20;;;2.92;;
11797;SDS011;5956;51.428;6.682;2023-06-26T10:02:41;9.02;;;4.22;;
11797;SDS011;5956;51.428;6.682;2023-06-26T10:05:08;5.47;;;4.60;;
11797;SDS011;5956;51.428;6.682;2023-06-26T10:07:34;5.75;;;3.17;;
11797;SDS011;5956;51.428;6.682;2023-06-26T10:10:02;4.18;;;3.15;;
11797;SDS011;5956;51.428;6.682;2023-06-26T10:12:29;6.00;;;3.30;;
11797;SDS011;5956;51.428;6.682;2023-06-26T10:14:56;4.00;;;3.20;;
11797;SDS011;5956;51.428;6.682;2023-06-26T10:17:24;5.47;;;3.25;;
11797;SDS011;5956;51.428;6.682;2023-06-26T10:19:52;4.13;;;3.50;;
11797;SDS011;5956;51.428;6.682;2023-06-26T10:22:21;5.05;;;3.50;;
11797;SDS011;5956;51.428;6.682;2023-06-26T10:24:51;4.47;;;2.72;;
11797;SDS011;5956;51.428;6.682;2023-06-26T10:27:19;5.00;;;2.92;;
11797;SDS011;5956;51.428;6.682;2023-06-26T10:29:46;4.40;;;3.15;;
11797;SDS011;5956;51.428;6.682;2023-06-26T10:32:14;3.78;;;2.90;;
11797;SDS011;5956;51.428;6.682;2023-06-26T10:34:40;4.93;;;2.90;;
11797;SDS011;5956;51.428;6.682;2023-06-26T10:37:09;5.75;;;3.08;;
11797;SDS011;5956;51.428;6.682;2023-06-26T10:39:48;3.50;;;2.83;;
11797;SDS011;5956;51.428;6.682;2023-06-26T10:42:15;2.67;;;2.45;;
11797;SDS011;5956;51.428;6.682;2023-06-26T10:44:42;4.22;;;2.60;;
11797;SDS011;5956;51.428;6.682;2023-06-26T10:47:09;3.13;;;2.45;;
11797;SDS011;5956;51.428;6.682;2023-06-26T10:49:36;5.13;;;2.60;;
11797;SDS011;5956;51.428;6.682;2023-06-26T10:52:05;3.65;;;2.25;;
11797;SDS011;5956;51.428;6.682;2023-06-26T10:54:33;3.63;;;2.30;;
11797;SDS011;5956;51.428;6.682;2023-06-26T10:56:59;4.80;;;2.50;;
11797;SDS011;5956;51.428;6.682;2023-06-26T10:59:27;2.80;;;2.50;;
11797;SDS011;5956;51.428;6.682;2023-06-26T11:01:54;4.60;;;2.20;;
11797;SDS011;5956;51.428;6.682;2023-06-26T11:04:35;3.47;;;2.13;;
11797;SDS011;5956;51.428;6.682;2023-06-26T11:07:14;3.03;;;2.00;;
11797;SDS011;5956;51.428;6.682;2023-06-26T11:09:54;2.65;;;2.10;;
11797;SDS011;5956;51.428;6.682;2023-06-26T11:15:08;2.53;;;1.98;;
11797;SDS011;5956;51.428;6.682;2023-06-26T11:17:35;7.40;;;2.20;;
11797;SDS011;5956;51.428;6.682;2023-06-26T11:20:02;4.93;;;1.80;;
11797;SDS011;5956;51.428;6.682;2023-06-26T11:22:31;3.53;;;1.95;;
11797;SDS011;5956;51.428;6.682;2023-06-26T11:24:59;2.38;;;1.83;;
11797;SDS011;5956;51.428;6.682;2023-06-26T11:27:30;4.55;;;2.13;;
11797;SDS011;5956;51.428;6.682;2023-06-26T11:29:56;1.85;;;1.63;;
11797;SDS011;5956;51.428;6.682;2023-06-26T11:32:23;2.75;;;1.88;;
11797;SDS011;5956;51.428;6.682;2023-06-26T11:34:52;3.60;;;1.77;;
11797;SDS011;5956;51.428;6.682;2023-06-26T11:37:19;4.18;;;3.42;;
11797;SDS011;5956;51.428;6.682;2023-06-26T11:39:45;6.20;;;5.07;;
11797;SDS011;5956;51.428;6.682;2023-06-26T11:42:13;2.40;;;1.65;;
11797;SDS011;5956;51.428;6.682;2023-06-26T11:44:40;3.20;;;1.75;;
11797;SDS011;5956;51.428;6.682;2023-06-26T11:47:07;4.07;;;1.40;;
11797;SDS011;5956;51.428;6.682;2023-06-26T11:49:34;2.45;;;1.75;;
11797;SDS011;5956;51.428;6.682;2023-06-26T11:52:02;4.80;;;1.70;;
11797;SDS011;5956;51.428;6.682;2023-06-26T11:54:30;3.22;;;1.40;;
11797;SDS011;5956;51.428;6.682;2023-06-26T11:56:57;1.40;;;1.30;;
11797;SDS011;5956;51.428;6.682;2023-06-26T11:59:31;2.70;;;1.30;;
11797;SDS011;5956;51.428;6.682;2023-06-26T12:01:57;1.70;;;1.50;;
11797;SDS011;5956;51.428;6.682;2023-06-26T12:04:24;2.08;;;1.30;;
11797;SDS011;5956;51.428;6.682;2023-06-26T12:06:51;3.03;;;1.55;;
11797;SDS011;5956;51.428;6.682;2023-06-26T12:09:22;1.40;;;1.30;;
11797;SDS011;5956;51.428;6.682;2023-06-26T12:11:51;1.52;;;1.33;;
11797;SDS011;5956;51.428;6.682;2023-06-26T12:14:19;1.58;;;1.48;;
11797;SDS011;5956;51.428;6.682;2023-06-26T12:16:47;3.08;;;1.40;;
11797;SDS011;5956;51.428;6.682;2023-06-26T12:19:14;2.53;;;1.35;;
11797;SDS011;5956;51.428;6.682;2023-06-26T12:21:44;2.70;;;1.48;;
11797;SDS011;5956;51.428;6.682;2023-06-26T12:24:12;1.85;;;1.52;;
11797;SDS011;5956;51.428;6.682;2023-06-26T12:26:40;2.67;;;1.77;;
11797;SDS011;5956;51.428;6.682;2023-06-26T12:29:09;4.20;;;1.40;;
11797;SDS011;5956;51.428;6.682;2023-06-26T12:31:39;1.42;;;1.30;;
11797;SDS011;5956;51.428;6.682;2023-06-26T12:34:09;3.50;;;1.30;;
11797;SDS011;5956;51.428;6.682;2023-06-26T12:36:40;1.40;;;1.30;;
11797;SDS011;5956;51.428;6.682;2023-06-26T12:39:09;2.40;;;1.35;;
11797;SDS011;5956;51.428;6.682;2023-06-26T12:41:36;2.42;;;1.52;;
11797;SDS011;5956;51.428;6.682;2023-06-26T12:44:15;4.75;;;1.40;;
11797;SDS011;5956;51.428;6.682;2023-06-26T12:46:42;3.30;;;1.40;;
11797;SDS011;5956;51.428;6.682;2023-06-26T12:49:10;1.40;;;1.30;;
11797;SDS011;5956;51.428;6.682;2023-06-26T12:51:38;1.58;;;1.20;;
11797;SDS011;5956;51.428;6.682;2023-06-26T12:54:05;1.40;;;1.30;;
11797;SDS011;5956;51.428;6.682;2023-06-26T12:56:31;1.67;;;1.27;;
11797;SDS011;5956;51.428;6.682;2023-06-26T12:58:58;1.73;;;1.35;;
11797;SDS011;5956;51.428;6.682;2023-06-26T13:01:27;1.55;;;1.30;;
11797;SDS011;5956;51.428;6.682;2023-06-26T13:03:53;2.13;;;1.30;;
11797;SDS011;5956;51.428;6.682;2023-06-26T13:06:21;2.20;;;1.33;;
11797;SDS011;5956;51.428;6.682;2023-06-26T13:08:48;2.05;;;1.27;;
11797;SDS011;5956;51.428;6.682;2023-06-26T13:11:14;1.58;;;1.48;;
11797;SDS011;5956;51.428;6.682;2023-06-26T13:13:42;3.95;;;1.60;;
11797;SDS011;5956;51.428;6.682;2023-06-26T13:16:08;1.33;;;1.23;;
11797;SDS011;5956;51.428;6.682;2023-06-26T13:18:35;2.55;;;1.25;;
11797;SDS011;5956;51.428;6.682;2023-06-26T13:21:01;2.83;;;1.10;;
11797;SDS011;5956;51.428;6.682;2023-06-26T13:23:29;1.50;;;1.40;;
11797;SDS011;5956;51.428;6.682;2023-06-26T13:25:55;2.35;;;1.40;;
11797;SDS011;5956;51.428;6.682;2023-06-26T13:28:22;2.25;;;1.48;;
11797;SDS011;5956;51.428;6.682;2023-06-26T13:30:48;5.13;;;2.28;;
11797;SDS011;5956;51.428;6.682;2023-06-26T13:33:15;1.73;;;1.20;;
11797;SDS011;5956;51.428;6.682;2023-06-26T13:35:41;2.63;;;1.73;;
11797;SDS011;5956;51.428;6.682;2023-06-26T13:38:08;3.35;;;1.50;;
11797;SDS011;5956;51.428;6.682;2023-06-26T13:40:36;3.22;;;1.60;;
11797;SDS011;5956;51.428;6.682;2023-06-26T13:43:02;2.15;;;1.55;;
11797;SDS011;5956;51.428;6.682;2023-06-26T13:45:29;2.63;;;1.50;;
11797;SDS011;5956;51.428;6.682;2023-06-26T13:47:55;2.42;;;1.63;;
11797;SDS011;5956;51.428;6.682;2023-06-26T13:50:21;2.78;;;1.50;;
11797;SDS011;5956;51.428;6.682;2023-06-26T13:52:48;2.90;;;1.42;;
11797;SDS011;5956;51.428;6.682;2023-06-26T13:55:14;3.75;;;1.70;;
11797;SDS011;5956;51.428;6.682;2023-06-26T13:57:42;1.58;;;1.30;;
11797;SDS011;5956;51.428;6.682;2023-06-26T14:00:09;2.00;;;1.73;;
11797;SDS011;5956;51.428;6.682;2023-06-26T14:02:37;3.67;;;1.50;;
11797;SDS011;5956;51.428;6.682;2023-06-26T14:05:04;3.05;;;1.30;;
11797;SDS011;5956;51.428;6.682;2023-06-26T14:07:30;1.42;;;1.33;;
11797;SDS011;5956;51.428;6.682;2023-06-26T14:09:57;2.78;;;1.50;;
11797;SDS011;5956;51.428;6.682;2023-06-26T14:12:24;3.10;;;1.63;;
11797;SDS011;5956;51.428;6.682;2023-06-26T14:14:52;1.42;;;1.20;;
11797;SDS011;5956;51.428;6.682;2023-06-26T14:17:19;4.53;;;1.75;;
11797;SDS011;5956;51.428;6.682;2023-06-26T14:19:45;2.58;;;1.23;;
11797;SDS011;5956;51.428;6.682;2023-06-26T14:22:12;1.30;;;1.13;;
11797;SDS011;5956;51.428;6.682;2023-06-26T14:24:38;1.25;;;1.08;;
11797;SDS011;5956;51.428;6.682;2023-06-26T14:27:04;2.95;;;2.65;;
11797;SDS011;5956;51.428;6.682;2023-06-26T14:29:31;3.67;;;2.78;;
11797;SDS011;5956;51.428;6.682;2023-06-26T14:31:59;2.50;;;1.45;;
11797;SDS011;5956;51.428;6.682;2023-06-26T14:34:25;1.27;;;1.17;;
11797;SDS011;5956;51.428;6.682;2023-06-26T14:36:52;1.33;;;1.15;;
11797;SDS011;5956;51.428;6.682;2023-06-26T14:39:18;2.40;;;1.45;;
11797;SDS011;5956;51.428;6.682;2023-06-26T14:41:45;2.03;;;1.20;;
11797;SDS011;5956;51.428;6.682;2023-06-26T14:44:12;2.17;;;1.60;;
11797;SDS011;5956;51.428;6.682;2023-06-26T14:46:39;1.63;;;1.52;;
11797;SDS011;5956;51.428;6.682;2023-06-26T14:49:06;1.50;;;1.40;;
11797;SDS011;5956;51.428;6.682;2023-06-26T14:51:33;1.58;;;1.05;;
11797;SDS011;5956;51.428;6.682;2023-06-26T14:53:59;1.27;;;1.17;;
11797;SDS011;5956;51.428;6.682;2023-06-26T14:56:26;1.23;;;1.13;;
11797;SDS011;5956;51.428;6.682;2023-06-26T14:58:52;6.40;;;5.88;;
11797;SDS011;5956;51.428;6.682;2023-06-26T15:01:19;2.92;;;1.90;;
11797;SDS011;5956;51.428;6.682;2023-06-26T15:03:45;2.33;;;1.58;;